Time;durP1;ratioP1;P1;durP2;ratioP2;P2;SDS_P1;SDS_P2;PMS_P1;PMS_P2;Temp;Humidity;BMP_temperature;BMP_pressure;BME280_temperature;BME280_humidity;BME280_pressure;Samples;Min_cycle;Max_cycle;Signal;HPM_P1;HPM_P2
2022/09/17 00:00:22;;;;;;;0.10;0.10;;;;;;;7.81;100.00;96124.22;5055593;28;20140;-76
2022/09/17 00:02:54;;;;;;;0.10;0.10;;;;;;;7.78;100.00;96124.69;5041832;28;20716;-76
2022/09/17 00:05:23;;;;;;;0.10;0.10;;;;;;;7.80;100.00;96131.41;5004994;28;20396;-76
2022/09/17 00:07:52;;;;;;;0.10;0.10;;;;;;;7.79;100.00;96126.34;5059410;28;20017;-76
2022/09/17 00:10:19;;;;;;;0.10;0.10;;;;;;;7.78;100.00;96116.69;5054677;28;20036;-76
2022/09/17 00:12:46;;;;;;;0.10;0.10;;;;;;;7.74;100.00;96121.72;5058934;28;20059;-76
2022/09/17 00:15:11;;;;;;;0.10;0.10;;;;;;;7.71;100.00;96121.38;5058841;28;20035;-77
2022/09/17 00:17:37;;;;;;;0.10;0.10;;;;;;;7.73;100.00;96122.75;5058497;28;20031;-77
2022/09/17 00:20:06;;;;;;;0.10;0.10;;;;;;;7.75;100.00;96133.16;5060146;28;20094;-77
2022/09/17 00:22:32;;;;;;;0.22;0.20;;;;;;;7.74;100.00;96123.56;5022747;28;20260;-76
2022/09/17 00:24:58;;;;;;;0.00;0.00;;;;;;;7.77;100.00;96134.53;5057469;28;20095;-77
2022/09/17 00:27:23;;;;;;;0.13;0.10;;;;;;;7.77;100.00;96123.06;5040353;28;20105;-78
2022/09/17 00:29:49;;;;;;;0.10;0.10;;;;;;;7.71;100.00;96124.84;5041244;28;20052;-77
2022/09/17 00:32:14;;;;;;;0.10;0.10;;;;;;;7.70;100.00;96133.88;5058776;28;20074;-77
2022/09/17 00:34:42;;;;;;;0.10;0.10;;;;;;;7.70;100.00;96133.88;5058598;28;20035;-77
2022/09/17 00:37:07;;;;;;;0.10;0.10;;;;;;;7.70;100.00;96130.41;5039112;28;20036;-77
2022/09/17 00:39:33;;;;;;;0.10;0.10;;;;;;;7.67;100.00;96131.69;5057189;28;20027;-77
2022/09/17 00:41:58;;;;;;;0.10;0.10;;;;;;;7.63;100.00;96135.91;5055965;28;20044;-77
2022/09/17 00:44:43;;;;;;;0.10;0.10;;;;;;;7.66;100.00;96131.94;5053955;28;20036;-77
2022/09/17 00:47:44;;;;;;;0.13;0.10;;;;;;;7.61;100.00;96129.16;5062510;28;20044;-77
2022/09/17 00:50:21;;;;;;;0.10;0.10;;;;;;;7.58;100.00;96127.00;5023127;28;20033;-76
2022/09/17 00:53:00;;;;;;;0.00;0.00;;;;;;;7.52;100.00;96134.88;5046637;28;20052;-77
2022/09/17 00:55:35;;;;;;;0.10;0.10;;;;;;;7.48;100.00;96136.41;5057456;28;20038;-76
2022/09/17 00:58:04;;;;;;;0.10;0.10;;;;;;;7.45;100.00;96141.38;5040044;28;20471;-76
2022/09/17 01:00:30;;;;;;;0.10;0.10;;;;;;;7.47;100.00;96139.28;5024742;28;20269;-77
2022/09/17 01:02:57;;;;;;;0.00;0.00;;;;;;;7.47;100.00;96139.28;5059731;28;20032;-76
2022/09/17 01:05:46;;;;;;;0.10;0.10;;;;;;;7.47;100.00;96140.13;5055776;28;20039;-76
2022/09/17 01:08:35;;;;;;;0.10;0.10;;;;;;;7.49;100.00;96143.34;5058219;28;20032;-76
2022/09/17 01:11:20;;;;;;;0.30;0.15;;;;;;;7.54;100.00;96154.06;5059821;28;20048;-76
2022/09/17 01:14:17;;;;;;;0.10;0.10;;;;;;;7.54;100.00;96156.75;5056415;28;20123;-76
2022/09/17 01:16:59;;;;;;;0.08;0.08;;;;;;;7.50;100.00;96150.28;5056609;28;20028;-76
2022/09/17 01:19:25;;;;;;;0.10;0.10;;;;;;;7.53;100.00;96143.66;5041109;28;20035;-75
2022/09/17 01:21:59;;;;;;;0.10;0.10;;;;;;;7.51;100.00;96149.22;5039984;28;20395;-75
2022/09/17 01:24:46;;;;;;;0.10;0.10;;;;;;;7.56;100.00;96150.38;5038399;28;20123;-75
2022/09/17 01:27:44;;;;;;;0.10;0.10;;;;;;;7.52;100.00;96148.19;5029404;28;20036;-76
2022/09/17 01:30:15;;;;;;;0.10;0.10;;;;;;;7.52;100.00;96147.38;5051424;28;20029;-75
2022/09/17 01:32:59;;;;;;;0.03;0.03;;;;;;;7.53;100.00;96147.13;5056408;28;20028;-75
2022/09/17 01:35:34;;;;;;;0.10;0.10;;;;;;;7.52;100.00;96147.38;5054704;28;20036;-75
2022/09/17 01:38:10;;;;;;;0.10;0.10;;;;;;;7.49;100.00;96150.53;5056711;28;20040;-75
2022/09/17 01:41:17;;;;;;;0.10;0.10;;;;;;;7.46;100.00;96148.31;5055416;28;20232;-76
2022/09/17 01:44:07;;;;;;;0.10;0.10;;;;;;;7.44;100.00;96148.56;5036555;28;20506;-75
2022/09/17 01:46:41;;;;;;;0.10;0.10;;;;;;;7.42;100.00;96152.50;5053065;28;20089;-75
2022/09/17 01:49:09;;;;;;;0.10;0.10;;;;;;;7.47;100.00;96164.06;5025397;28;20044;-76
2022/09/17 01:51:42;;;;;;;0.20;0.10;;;;;;;7.44;100.00;96161.88;5021887;28;20474;-75
2022/09/17 01:54:30;;;;;;;0.22;0.10;;;;;;;7.44;100.00;96155.75;5058436;28;20032;-75
2022/09/17 01:57:28;;;;;;;0.10;0.10;;;;;;;7.45;100.00;96157.34;5045980;28;20059;-76
2022/09/17 02:00:03;;;;;;;0.10;0.10;;;;;;;7.40;100.00;96155.41;5058052;28;20048;-75
2022/09/17 02:02:49;;;;;;;0.10;0.10;;;;;;;7.43;100.00;96152.25;5057263;28;20268;-75
2022/09/17 02:05:27;;;;;;;0.10;0.10;;;;;;;7.43;100.00;96149.59;5057988;28;20028;-76
2022/09/17 02:08:19;;;;;;;0.10;0.10;;;;;;;7.43;100.00;96149.59;5030318;28;20586;-76
2022/09/17 02:10:52;;;;;;;0.10;0.10;;;;;;;7.41;100.00;96157.03;5061417;28;20053;-76
2022/09/17 02:13:33;;;;;;;0.10;0.10;;;;;;;7.41;100.00;96153.56;5061730;28;20032;-77
2022/09/17 02:16:09;;;;;;;0.10;0.10;;;;;;;7.40;100.00;96160.75;5059659;28;20060;-76
2022/09/17 02:18:42;;;;;;;0.10;0.10;;;;;;;7.36;100.00;96151.59;5028916;28;20062;-76
2022/09/17 02:21:15;;;;;;;0.17;0.10;;;;;;;7.36;100.00;96156.09;5060665;28;20035;-76
2022/09/17 02:23:51;;;;;;;0.10;0.10;;;;;;;7.36;100.00;96143.59;5061745;28;20470;-77
2022/09/17 02:26:19;;;;;;;0.10;0.10;;;;;;;7.35;100.00;96144.66;5058892;28;20082;-76
2022/09/17 02:28:50;;;;;;;0.10;0.10;;;;;;;7.36;100.00;96142.78;5043070;28;20491;-76
2022/09/17 02:31:18;;;;;;;0.10;0.10;;;;;;;7.42;100.00;96148.00;5057142;28;20036;-76
2022/09/17 02:33:47;;;;;;;0.10;0.10;;;;;;;7.46;100.00;96154.44;5058356;28;20017;-76
2022/09/17 02:36:13;;;;;;;0.10;0.10;;;;;;;7.42;100.00;96155.97;5057429;28;20104;-76
2022/09/17 02:38:43;;;;;;;0.10;0.10;;;;;;;7.42;100.00;96153.31;5058068;28;20165;-76
2022/09/17 02:41:15;;;;;;;0.13;0.10;;;;;;;7.41;100.00;96151.69;5058529;28;20355;-76
2022/09/17 02:44:09;;;;;;;0.10;0.10;;;;;;;7.38;100.00;96144.16;5061465;28;20029;-76
2022/09/17 02:47:13;;;;;;;0.10;0.10;;;;;;;7.37;100.00;96155.06;5057439;28;20120;-76
2022/09/17 02:49:44;;;;;;;0.10;0.10;;;;;;;7.41;100.00;96159.69;5044838;28;20034;-76
2022/09/17 02:52:21;;;;;;;;;;;;;;;7.39;100.00;96158.28;5059519;28;20407;-76
2022/09/17 02:54:54;;;;;;;0.10;0.10;;;;;;;7.41;100.00;96150.91;5041440;28;19923;-76
2022/09/17 02:57:39;;;;;;;0.10;0.10;;;;;;;7.42;100.00;96158.63;5060980;28;20056;-76
2022/09/17 03:00:19;;;;;;;0.10;0.10;;;;;;;7.45;100.00;96149.38;5058692;28;20060;-76
2022/09/17 03:02:57;;;;;;;0.10;0.10;;;;;;;7.48;100.00;96152.38;5061256;28;20028;-76
2022/09/17 03:05:25;;;;;;;0.10;0.10;;;;;;;7.47;100.00;96153.44;5038120;28;20475;-76
2022/09/17 03:07:50;;;;;;;0.10;0.10;;;;;;;7.44;100.00;96151.22;5040063;28;20506;-76
2022/09/17 03:10:17;;;;;;;0.08;0.08;;;;;;;7.47;100.00;96155.25;5040091;28;20047;-76
2022/09/17 03:12:43;;;;;;;0.10;0.10;;;;;;;7.42;100.00;96150.66;5056778;28;20033;-76
2022/09/17 03:15:09;;;;;;;0.10;0.10;;;;;;;7.42;100.00;96158.63;5056508;28;20055;-76
2022/09/17 03:17:34;;;;;;;0.00;0.00;;;;;;;7.39;100.00;96153.81;5042748;28;20357;-76
2022/09/17 03:20:00;;;;;;;0.10;0.10;;;;;;;7.35;100.00;96165.94;5057931;28;20044;-76
2022/09/17 03:22:26;;;;;;;0.10;0.10;;;;;;;7.41;100.00;96159.69;5057521;28;21354;-76
2022/09/17 03:24:51;;;;;;;0.10;0.10;;;;;;;7.46;100.00;96158.97;5057256;28;20278;-76
2022/09/17 03:27:17;;;;;;;0.10;0.10;;;;;;;7.47;100.00;96157.91;5061119;28;20032;-76
2022/09/17 03:29:43;;;;;;;0.10;0.10;;;;;;;7.51;100.00;96159.06;5059330;28;20032;-76
2022/09/17 03:32:08;;;;;;;0.10;0.10;;;;;;;7.51;100.00;96161.75;5058986;28;20040;-76
2022/09/17 03:34:34;;;;;;;0.03;0.03;;;;;;;7.46;100.00;96154.44;5054479;28;20028;-76
2022/09/17 03:37:02;;;;;;;0.10;0.10;;;;;;;7.44;100.00;96164.53;5043984;28;20561;-76
2022/09/17 03:39:28;;;;;;;0.10;0.10;;;;;;;7.44;100.00;96158.41;5056525;28;20043;-76
2022/09/17 03:41:53;;;;;;;0.10;0.10;;;;;;;7.45;100.00;96162.69;5060818;28;20020;-76
2022/09/17 03:44:21;;;;;;;0.10;0.10;;;;;;;7.39;100.00;96169.78;5042269;28;20545;-76
2022/09/17 03:46:47;;;;;;;0.10;0.10;;;;;;;7.39;100.00;96161.78;5058096;28;20052;-76
2022/09/17 03:49:12;;;;;;;0.25;0.10;;;;;;;7.40;100.00;96163.41;5059270;28;20058;-76
2022/09/17 03:51:38;;;;;;;0.20;0.20;;;;;;;7.38;100.00;96170.78;5042809;28;20044;-76
2022/09/17 03:54:03;;;;;;;0.10;0.10;;;;;;;7.45;100.00;96166.16;5026405;28;20055;-76
2022/09/17 03:56:29;;;;;;;0.10;0.10;;;;;;;7.45;100.00;96162.69;5056174;28;20386;-76
2022/09/17 03:58:58;;;;;;;0.15;0.10;;;;;;;7.47;100.00;96169.41;5056012;28;20520;-76
2022/09/17 04:01:24;;;;;;;0.25;0.10;;;;;;;7.48;100.00;96171.03;5036617;28;20371;-76
2022/09/17 04:03:49;;;;;;;0.20;0.15;;;;;;;7.50;100.00;96168.13;5058386;28;20454;-76
2022/09/17 04:06:15;;;;;;;0.10;0.10;;;;;;;7.51;100.00;96175.84;5042408;28;20028;-76
2022/09/17 04:08:42;;;;;;;0.10;0.10;;;;;;;7.54;100.00;96177.22;5029876;28;20075;-76
2022/09/17 04:11:08;;;;;;;0.20;0.15;;;;;;;7.53;100.00;96171.09;5057478;28;20051;-76
2022/09/17 04:13:34;;;;;;;0.10;0.10;;;;;;;7.56;100.00;96174.34;5059802;28;20035;-77
2022/09/17 04:16:00;;;;;;;0.40;0.15;;;;;;;7.59;100.00;96173.88;5057694;28;20028;-76
2022/09/17 04:18:25;;;;;;;0.13;0.10;;;;;;;7.53;100.00;96176.44;5057388;28;20056;-76
2022/09/17 04:20:52;;;;;;;0.30;0.20;;;;;;;7.58;100.00;96172.25;5058313;28;20512;-76
2022/09/17 04:23:17;;;;;;;0.10;0.10;;;;;;;7.49;100.00;96171.81;5043007;28;20375;-76
2022/09/17 04:25:43;;;;;;;0.10;0.10;;;;;;;7.44;100.00;96203.66;5043004;28;20039;-76
2022/09/17 04:28:09;;;;;;;0.10;0.10;;;;;;;7.42;100.00;96177.28;5058343;28;20037;-76
2022/09/17 04:30:35;;;;;;;0.30;0.20;;;;;;;7.49;100.00;96177.16;5036069;28;20062;-76
2022/09/17 04:33:00;;;;;;;0.10;0.10;;;;;;;7.47;100.00;96187.19;5056892;28;20417;-76
2022/09/17 04:35:26;;;;;;;0.10;0.10;;;;;;;7.53;100.00;96191.59;5055864;28;20032;-76
2022/09/17 04:37:53;;;;;;;0.10;0.10;;;;;;;7.53;100.00;96184.41;5060650;28;20052;-76
2022/09/17 04:40:18;;;;;;;0.10;0.10;;;;;;;7.60;100.00;96186.94;5057709;28;20008;-76
2022/09/17 04:42:44;;;;;;;0.10;0.10;;;;;;;7.57;100.00;96181.28;5060279;28;20024;-75
2022/09/17 04:45:09;;;;;;;0.10;0.10;;;;;;;7.50;100.00;96198.22;5041371;28;20122;-76
2022/09/17 04:47:38;;;;;;;0.10;0.10;;;;;;;7.56;100.00;96196.47;5057251;28;20087;-76
2022/09/17 04:50:04;;;;;;;0.10;0.10;;;;;;;7.54;100.00;96196.69;5055791;28;20792;-76
2022/09/17 04:52:29;;;;;;;0.10;0.10;;;;;;;7.53;100.00;96202.25;5057411;28;20029;-76
2022/09/17 04:54:55;;;;;;;0.10;0.10;;;;;;;7.51;100.00;96205.16;5040592;28;20466;-76
2022/09/17 04:57:22;;;;;;;0.10;0.10;;;;;;;7.54;100.00;96202.00;5059829;28;20035;-76
2022/09/17 04:59:48;;;;;;;0.15;0.10;;;;;;;7.56;100.00;96207.13;5025637;28;20024;-76
2022/09/17 05:02:13;;;;;;;0.17;0.17;;;;;;;7.61;100.00;96203.72;5058939;28;20033;-76
2022/09/17 05:04:38;;;;;;;0.10;0.10;;;;;;;7.53;100.00;96216.38;5055856;28;20024;-75
2022/09/17 05:07:04;;;;;;;0.10;0.10;;;;;;;7.41;100.00;96198.81;5058793;28;20036;-75
2022/09/17 05:09:30;;;;;;;0.15;0.15;;;;;;;7.46;100.00;96202.38;5057616;28;20385;-76
2022/09/17 05:11:55;;;;;;;0.10;0.10;;;;;;;7.48;100.00;96210.94;5042201;28;20036;-76
2022/09/17 05:14:21;;;;;;;0.10;0.10;;;;;;;7.53;100.00;96213.69;5041757;28;20032;-75
2022/09/17 05:16:46;;;;;;;0.10;0.10;;;;;;;7.57;100.00;96202.59;5058243;28;20032;-76
2022/09/17 05:19:11;;;;;;;0.25;0.15;;;;;;;7.51;100.00;96207.81;5038008;28;20036;-76
2022/09/17 05:21:37;;;;;;;0.10;0.10;;;;;;;7.52;100.00;96206.75;5058709;28;20039;-76
2022/09/17 05:24:02;;;;;;;0.10;0.10;;;;;;;7.56;100.00;96222.28;5042582;28;20455;-76
2022/09/17 05:26:28;;;;;;;0.10;0.10;;;;;;;7.59;100.00;96216.47;5058061;28;20032;-76
2022/09/17 05:28:54;;;;;;;0.10;0.10;;;;;;;7.53;100.00;96220.88;5059044;28;20047;-77
2022/09/17 05:31:19;;;;;;;0.20;0.20;;;;;;;7.56;100.00;96222.28;5059212;28;20024;-77
2022/09/17 05:33:45;;;;;;;0.10;0.10;;;;;;;7.57;100.00;96219.38;5061125;28;20036;-76
2022/09/17 05:36:10;;;;;;;0.10;0.10;;;;;;;7.58;100.00;96233.50;5027355;28;20032;-77
2022/09/17 05:38:36;;;;;;;0.15;0.10;;;;;;;7.62;100.00;96230.13;5042133;28;20032;-77
2022/09/17 05:41:05;;;;;;;0.10;0.10;;;;;;;7.62;100.00;96229.31;5059129;28;20544;-77
2022/09/17 05:43:32;;;;;;;0.10;0.10;;;;;;;7.70;100.00;96229.75;5010159;28;20055;-77
2022/09/17 05:46:02;;;;;;;0.10;0.10;;;;;;;7.75;100.00;96231.72;5062279;28;20122;-77
2022/09/17 05:48:27;;;;;;;0.10;0.10;;;;;;;7.74;100.00;96241.56;5061150;28;20366;-77
2022/09/17 05:50:54;;;;;;;0.20;0.13;;;;;;;7.72;100.00;96238.34;5059111;28;20262;-77
2022/09/17 05:53:19;;;;;;;0.17;0.17;;;;;;;7.73;100.00;96244.47;5044979;28;20051;-77
2022/09/17 05:55:47;;;;;;;0.20;0.13;;;;;;;7.75;100.00;96243.19;5058831;28;20044;-77
2022/09/17 05:58:17;;;;;;;0.10;0.10;;;;;;;7.73;100.00;96250.59;5061212;28;20070;-77
2022/09/17 06:00:45;;;;;;;0.13;0.13;;;;;;;7.73;100.00;96249.81;5043584;28;20130;-77
2022/09/17 06:03:12;;;;;;;0.10;0.10;;;;;;;7.68;100.00;96242.50;5043339;28;20033;-76
2022/09/17 06:05:38;;;;;;;0.10;0.10;;;;;;;7.66;100.00;96246.44;5042311;28;20207;-77
2022/09/17 06:08:04;;;;;;;0.20;0.20;;;;;;;7.66;100.00;96239.28;5061672;28;20108;-77
2022/09/17 06:10:30;;;;;;;0.10;0.10;;;;;;;7.69;100.00;96253.97;5043609;28;20048;-77
2022/09/17 06:12:57;;;;;;;0.10;0.10;;;;;;;7.73;100.00;96244.47;5046417;28;20040;-77
2022/09/17 06:15:25;;;;;;;0.22;0.20;;;;;;;7.76;100.00;96244.00;5060242;28;20075;-76
2022/09/17 06:17:51;;;;;;;0.10;0.10;;;;;;;7.80;100.00;96255.81;5062808;28;20227;-77
2022/09/17 06:20:17;;;;;;;0.10;0.10;;;;;;;7.86;100.00;96262.88;5058940;28;20039;-77
2022/09/17 06:22:43;;;;;;;0.10;0.10;;;;;;;7.88;100.00;96263.44;5058393;28;20107;-77
2022/09/17 06:25:08;;;;;;;0.10;0.10;;;;;;;7.95;100.00;96272.09;5060101;28;20111;-77
2022/09/17 06:27:34;;;;;;;0.10;0.10;;;;;;;7.96;100.00;96264.91;5058360;28;20036;-77
2022/09/17 06:30:00;;;;;;;0.10;0.10;;;;;;;7.96;100.00;96268.38;5044105;28;20041;-77
2022/09/17 06:32:26;;;;;;;0.10;0.10;;;;;;;8.01;100.00;96268.47;5060659;28;21011;-77
2022/09/17 06:34:52;;;;;;;0.10;0.10;;;;;;;8.00;100.00;96266.03;5043635;28;20024;-76
2022/09/17 06:37:18;;;;;;;0.10;0.10;;;;;;;7.94;100.00;96267.81;5059180;28;20039;-77
2022/09/17 06:39:44;;;;;;;0.10;0.10;;;;;;;8.03;100.00;96262.94;5059951;28;20020;-77
2022/09/17 06:42:11;;;;;;;0.10;0.10;;;;;;;8.00;100.00;96261.53;5059754;28;20036;-77
2022/09/17 06:44:37;;;;;;;0.10;0.10;;;;;;;7.99;100.00;96270.56;5041272;28;20020;-77
2022/09/17 06:47:06;;;;;;;0.13;0.13;;;;;;;8.07;100.00;96272.06;5044430;28;20094;-76
2022/09/17 06:49:32;;;;;;;0.10;0.10;;;;;;;8.05;100.00;96266.97;5043414;28;20116;-77
2022/09/17 06:51:57;;;;;;;0.10;0.10;;;;;;;8.07;100.00;96269.38;5026650;28;20122;-77
2022/09/17 06:54:23;;;;;;;0.10;0.10;;;;;;;8.09;100.00;96259.28;5057960;28;20487;-77
2022/09/17 06:56:48;;;;;;;0.10;0.10;;;;;;;8.15;100.00;96270.88;5045595;28;20059;-77
2022/09/17 06:59:14;;;;;;;0.13;0.13;;;;;;;8.25;100.00;96274.56;5061900;28;20388;-77
2022/09/17 07:01:39;;;;;;;0.10;0.10;;;;;;;8.18;100.00;96263.22;5060481;28;20066;-76
2022/09/17 07:04:05;;;;;;;0.10;0.10;;;;;;;8.17;100.00;96268.75;5046206;28;20494;-77
2022/09/17 07:06:30;;;;;;;0.10;0.10;;;;;;;8.15;100.00;96263.69;5058779;28;20089;-77
2022/09/17 07:08:57;;;;;;;0.10;0.10;;;;;;;8.43;100.00;96270.09;5029928;28;20192;-77
2022/09/17 07:11:25;;;;;;;0.10;0.10;;;;;;;8.50;100.00;96263.56;5063582;28;20083;-77
2022/09/17 07:13:50;;;;;;;0.10;0.10;;;;;;;8.52;100.00;96260.66;5043941;28;20732;-77
2022/09/17 07:16:16;;;;;;;0.10;0.10;;;;;;;8.52;100.00;96274.81;5041180;28;20060;-78
2022/09/17 07:18:42;;;;;;;0.10;0.10;;;;;;;8.42;100.00;96263.16;5061209;28;20600;-77
2022/09/17 07:21:08;;;;;;;0.20;0.10;;;;;;;8.38;100.00;96268.94;5059024;28;20121;-78
2022/09/17 07:23:35;;;;;;;0.10;0.10;;;;;;;8.42;100.00;96268.50;5026361;28;20052;-75
2022/09/17 07:26:04;;;;;;;0.10;0.10;;;;;;;8.55;100.00;96263.63;5044598;28;20025;-76
2022/09/17 07:28:30;;;;;;;0.10;0.10;;;;;;;8.55;100.00;96274.31;5025230;28;20033;-76
2022/09/17 07:30:56;;;;;;;0.10;0.10;;;;;;;8.44;100.00;96261.06;5058966;28;20036;-77
2022/09/17 07:33:25;;;;;;;0.10;0.10;;;;;;;8.28;100.00;96263.41;5058788;28;20434;-77
2022/09/17 07:35:58;;;;;;;0.10;0.10;;;;;;;8.22;100.00;96263.53;5060240;28;20020;-77
2022/09/17 07:38:24;;;;;;;0.10;0.10;;;;;;;8.30;100.00;96279.16;5058826;28;20474;-76
2022/09/17 07:40:58;;;;;;;0.10;0.10;;;;;;;8.49;100.00;96272.63;5058666;28;20035;-76
2022/09/17 07:43:28;;;;;;;0.10;0.10;;;;;;;8.63;100.00;96278.44;5059145;28;20047;-77
2022/09/17 07:45:56;;;;;;;0.10;0.10;;;;;;;8.69;100.00;96266.81;5061351;28;20036;-75
2022/09/17 07:48:22;;;;;;;0.35;0.20;;;;;;;8.77;100.00;96270.94;5060082;28;20044;-76
2022/09/17 07:50:47;;;;;;;0.10;0.10;;;;;;;9.05;100.00;96273.56;5041994;28;20029;-77
2022/09/17 07:53:13;;;;;;;0.10;0.10;;;;;;;9.20;100.00;96279.13;5044140;28;20068;-77
2022/09/17 07:55:39;;;;;;;0.10;0.10;;;;;;;9.21;100.00;96277.28;5062043;28;20391;-77
2022/09/17 07:58:04;;;;;;;0.10;0.10;;;;;;;9.19;100.00;96280.19;5047055;28;20119;-77
2022/09/17 08:00:30;;;;;;;0.10;0.10;;;;;;;9.44;100.00;96273.63;5026875;28;20324;-77
2022/09/17 08:02:56;;;;;;;0.10;0.10;;;;;;;9.40;100.00;96275.13;5060043;28;20182;-77
2022/09/17 08:05:23;;;;;;;0.10;0.10;;;;;;;9.63;100.00;96269.59;5058846;28;20033;-77
2022/09/17 08:07:54;;;;;;;0.10;0.10;;;;;;;9.80;100.00;96260.72;5060253;28;20173;-77
2022/09/17 08:10:21;;;;;;;0.10;0.10;;;;;;;9.65;100.00;96262.16;5037588;28;20252;-77
2022/09/17 08:12:54;;;;;;;0.10;0.10;;;;;;;9.56;100.00;96263.63;5042348;28;20036;-77
2022/09/17 08:15:19;;;;;;;0.10;0.10;;;;;;;9.52;100.00;96269.72;5037901;28;20174;-77
2022/09/17 08:17:46;;;;;;;0.15;0.10;;;;;;;9.46;100.00;96269.63;5059400;28;20055;-77
2022/09/17 08:20:15;;;;;;;0.10;0.10;;;;;;;9.58;100.00;96256.19;5025848;28;20522;-76
2022/09/17 08:22:41;;;;;;;0.10;0.10;;;;;;;9.57;100.00;96267.94;5022867;28;20066;-77
2022/09/17 08:25:08;;;;;;;0.10;0.10;;;;;;;9.60;100.00;96272.78;5040390;28;20026;-76
2022/09/17 08:27:36;;;;;;;0.10;0.10;;;;;;;9.57;100.00;96286.63;5040939;28;20029;-77
2022/09/17 08:30:02;;;;;;;0.20;0.10;;;;;;;9.51;100.00;96286.81;5034907;28;20040;-76
2022/09/17 08:32:29;;;;;;;0.10;0.10;;;;;;;9.48;100.00;96286.22;5051084;28;20430;-76
2022/09/17 08:34:54;;;;;;;0.17;0.17;;;;;;;9.37;100.00;96283.66;5022116;28;20418;-77
2022/09/17 08:37:20;;;;;;;0.10;0.10;;;;;;;9.40;100.00;96291.97;5057937;28;20032;-77
2022/09/17 08:39:46;;;;;;;0.00;0.00;;;;;;;9.47;100.00;96284.59;5054020;28;20024;-77
2022/09/17 08:42:20;;;;;;;0.13;0.13;;;;;;;9.53;100.00;96293.50;5057768;28;20024;-77
2022/09/17 08:44:46;;;;;;;0.20;0.20;;;;;;;9.37;100.00;96283.66;5052762;28;20086;-77
2022/09/17 08:47:21;;;;;;;0.20;0.10;;;;;;;9.30;100.00;96291.03;5059030;28;20064;-77
2022/09/17 08:49:53;;;;;;;0.10;0.10;;;;;;;9.11;100.00;96287.81;5055928;28;20089;-77
2022/09/17 08:52:37;;;;;;;0.10;0.10;;;;;;;9.09;100.00;96306.72;5039676;28;20089;-77
2022/09/17 08:55:25;;;;;;;0.17;0.17;;;;;;;9.11;100.00;96296.63;5029006;28;20047;-77
2022/09/17 08:58:18;;;;;;;0.10;0.10;;;;;;;9.15;100.00;96300.41;5058431;28;20032;-77
2022/09/17 09:00:43;;;;;;;0.10;0.10;;;;;;;8.99;100.00;96298.53;5050336;28;20056;-77
2022/09/17 09:03:22;;;;;;;0.17;0.15;;;;;;;8.94;100.00;96293.13;5005814;28;20479;-77
2022/09/17 09:05:51;;;;;;;0.15;0.10;;;;;;;9.44;100.00;96293.13;5051957;28;20128;-76
2022/09/17 09:08:32;;;;;;;0.20;0.20;;;;;;;9.76;100.00;96281.78;5056780;28;20091;-77
2022/09/17 09:11:01;;;;;;;0.10;0.10;;;;;;;9.96;100.00;96276.72;5054729;28;20493;-77
2022/09/17 09:13:38;;;;;;;0.10;0.10;;;;;;;10.26;100.00;96273.59;5041381;28;20119;-76
2022/09/17 09:16:17;;;;;;;0.10;0.10;;;;;;;10.34;100.00;96275.03;5037392;28;20052;-77
2022/09/17 09:18:43;;;;;;;0.10;0.10;;;;;;;10.18;100.00;96276.69;5054675;28;20257;-77
2022/09/17 09:21:21;;;;;;;0.10;0.10;;;;;;;10.82;100.00;96284.91;5024888;28;20168;-78
2022/09/17 09:23:57;;;;;;;0.17;0.15;;;;;;;10.84;100.00;96282.78;5053574;28;20094;-75
2022/09/17 09:26:48;;;;;;;0.10;0.10;;;;;;;10.72;100.00;96266.06;5028077;28;20467;-77
2022/09/17 09:29:28;;;;;;;0.10;0.10;;;;;;;10.73;100.00;96273.00;5041183;28;20048;-77
2022/09/17 09:32:00;;;;;;;0.10;0.10;;;;;;;10.85;100.00;96265.63;5023461;28;20696;-76
2022/09/17 09:34:28;;;;;;;0.17;0.17;;;;;;;10.64;100.00;96274.53;5057099;28;20024;-77
2022/09/17 09:37:30;;;;;;;0.10;0.10;;;;;;;10.46;100.00;96278.38;5056798;28;20738;-77
2022/09/17 09:40:04;;;;;;;0.20;0.20;;;;;;;10.55;100.00;96270.72;5037495;28;20143;-77
2022/09/17 09:42:33;;;;;;;0.20;0.20;;;;;;;10.43;100.00;96272.75;5030276;28;20029;-77
2022/09/17 09:45:03;;;;;;;0.20;0.20;;;;;;;10.35;100.00;96281.19;5054585;28;20553;-77
2022/09/17 09:47:48;;;;;;;0.10;0.10;;;;;;;10.70;100.00;96275.41;5056053;28;20431;-77
2022/09/17 09:50:20;;;;;;;0.15;0.10;;;;;;;11.27;100.00;96272.13;5005305;28;20569;-77
2022/09/17 09:52:49;;;;;;;0.10;0.10;;;;;;;12.08;100.00;96278.00;5058153;28;20382;-77
2022/09/17 09:55:46;;;;;;;0.22;0.20;;;;;;;12.59;100.00;96266.59;5026861;28;20031;-77
2022/09/17 09:58:35;;;;;;;0.20;0.20;;;;;;;11.80;100.00;96267.63;5015836;28;20035;-77
2022/09/17 10:01:01;;;;;;;0.22;0.20;;;;;;;11.82;100.00;96268.19;5051806;28;20119;-76
2022/09/17 10:03:31;;;;;;;0.20;0.13;;;;;;;12.24;100.00;96286.91;5057781;28;20043;-77
2022/09/17 10:06:03;;;;;;;0.10;0.10;;;;;;;12.70;100.00;96268.25;5059469;28;20053;-77
2022/09/17 10:08:32;;;;;;;0.10;0.10;;;;;;;12.46;100.00;96251.81;5064019;28;20039;-76
2022/09/17 10:11:16;;;;;;;0.20;0.20;;;;;;;12.36;100.00;96263.31;5055706;28;20590;-75
2022/09/17 10:13:42;;;;;;;0.10;0.10;;;;;;;12.83;100.00;96262.34;5044773;28;20114;-76
2022/09/17 10:16:25;;;;;;;0.20;0.20;;;;;;;13.44;100.00;96264.25;5066004;28;20032;-76
2022/09/17 10:19:13;;;;;;;0.10;0.10;;;;;;;13.97;100.00;96249.31;5066582;28;20036;-76
2022/09/17 10:21:41;;;;;;;0.10;0.10;;;;;;;13.70;100.00;96267.72;5033479;28;20097;-76
2022/09/17 10:24:23;;;;;;;0.10;0.10;;;;;;;13.46;100.00;96259.38;5069018;28;20099;-76
2022/09/17 10:27:00;;;;;;;0.10;0.10;;;;;;;12.89;100.00;96261.25;5062408;28;20036;-77
2022/09/17 10:29:26;;;;;;;0.10;0.10;;;;;;;12.13;100.00;96274.50;5046258;28;20039;-76
2022/09/17 10:31:54;;;;;;;0.10;0.10;;;;;;;11.36;100.00;96286.66;5063933;28;20619;-76
2022/09/17 10:34:26;;;;;;;0.15;0.10;;;;;;;10.66;100.00;96301.88;5066177;28;20444;-76
2022/09/17 10:36:53;;;;;;;0.10;0.10;;;;;;;10.43;100.00;96294.13;5064016;28;20522;-76
2022/09/17 10:39:37;;;;;;;0.10;0.10;;;;;;;10.30;100.00;96288.09;5029556;28;20035;-76
2022/09/17 10:42:12;;;;;;;0.17;0.17;;;;;;;10.85;100.00;96299.63;5062133;28;20483;-76
2022/09/17 10:44:50;;;;;;;0.20;0.20;;;;;;;13.33;100.00;96282.25;5047583;28;20025;-76
2022/09/17 10:47:24;;;;;;;0.20;0.10;;;;;;;17.70;100.00;96271.28;5058793;28;20086;-77
2022/09/17 10:50:06;;;;;;;0.10;0.10;;;;;;;15.46;100.00;96275.06;5064893;28;20029;-76
2022/09/17 10:52:35;;;;;;;0.10;0.10;;;;;;;13.13;100.00;96282.22;5068261;28;20024;-76
2022/09/17 10:55:09;;;;;;;0.20;0.20;;;;;;;12.26;100.00;96282.06;5050395;28;20506;-76
2022/09/17 10:57:56;;;;;;;0.10;0.10;;;;;;;12.32;100.00;96282.91;5046894;28;20418;-76
2022/09/17 11:00:23;;;;;;;0.10;0.10;;;;;;;12.18;100.00;96278.03;5064950;28;20537;-76
2022/09/17 11:03:17;;;;;;;0.10;0.10;;;;;;;12.26;100.00;96279.38;5048820;28;20028;-76
2022/09/17 11:05:57;;;;;;;0.10;0.10;;;;;;;12.82;100.00;96266.91;5065362;28;20023;-76
2022/09/17 11:08:45;;;;;;;0.10;0.10;;;;;;;12.89;100.00;96261.25;5047953;28;20032;-76
2022/09/17 11:11:26;;;;;;;0.10;0.10;;;;;;;12.34;100.00;96253.94;5067531;28;20139;-76
2022/09/17 11:14:07;;;;;;;0.10;0.10;;;;;;;12.17;100.00;96270.25;5059266;28;20094;-76
2022/09/17 11:16:44;;;;;;;0.10;0.10;;;;;;;12.28;100.00;96266.50;5058661;28;20245;-76
2022/09/17 11:19:19;;;;;;;0.22;0.22;;;;;;;16.41;100.00;96252.72;5070304;28;20093;-76
2022/09/17 11:22:10;;;;;;;0.10;0.10;;;;;;;16.73;99.12;96243.16;5008353;28;20029;-76
2022/09/17 11:24:44;;;;;;;;;;;;;;;19.15;85.87;96224.41;5042487;28;20453;-77
2022/09/17 11:27:28;;;;;;;0.10;0.10;;;;;;;17.46;92.20;96233.59;5063639;28;19928;-76
2022/09/17 11:30:20;;;;;;;0.20;0.20;;;;;;;16.89;100.00;96233.72;5066452;28;20519;-76
2022/09/17 11:33:24;;;;;;;0.10;0.10;;;;;;;17.53;89.82;96223.19;5042973;28;20036;-76
2022/09/17 11:36:01;;;;;;;0.22;0.22;;;;;;;20.26;73.38;96230.69;5059548;28;20759;-77
2022/09/17 11:38:37;;;;;;;0.10;0.10;;;;;;;23.02;51.56;96217.50;5067066;28;20044;-77
2022/09/17 11:41:11;;;;;;;0.10;0.10;;;;;;;20.02;66.58;96220.25;5061637;28;20123;-77
2022/09/17 11:43:43;;;;;;;0.20;0.20;;;;;;;19.99;74.14;96211.91;5023759;28;20029;-77
2022/09/17 11:46:22;;;;;;;0.20;0.20;;;;;;;21.78;52.38;96213.38;5059800;28;20409;-76
2022/09/17 11:48:59;;;;;;;0.20;0.20;;;;;;;24.72;43.01;96210.72;5063511;28;20032;-77
2022/09/17 11:51:31;;;;;;;0.20;0.20;;;;;;;27.11;38.11;96202.34;5023379;28;20430;-77